Chicago, Illinois
Traffic Map
Current Weather Conditions
Chicago, Illinois
Broken Clouds
Broken Clouds
76°
Feels Like: 76°
Wind Chill: 76° Ceiling: 4900
Heat Index: 76° Visibility: 10mi
Dew Point: 68° Wind: 6mph
Humidity: 76% Direction: 260° (W)
Pressure: 29.88in Gusts: 0mph
Raw Report DataKMDW 250153Z 26005KT 10SM SCT025 BKN049 BKN180 BKN250 24/20 A2988 RMK AO2 RAE19 TSE39 SLP108 CONT LTGICCG DSNT E-SW CB DSNT E-SW P0000 T02440200
Traffic Incident Summary
Active as of:
Severity:
Category:
InformationThere was an issue retrieving the traffic information for this location. Please try a different location or try again shortly.
Advertisements
Track Severe Weather on mobile